Steele City, Nebraska
Current Conditions -  °F | °C
As of 3:15 AM on Wednesday 22 Oct 2014 (Local Time) from KBIE Reporting Station
Clear Clear  
Wind Chill: 57°   Ceiling: Unl
Heat Index: 57°   Visibility: 10mi
Dew Point: 45°   Wind: 10mph
Humidity: 64%   Direction: 150°SSE
Pressure: 30.06"   Gusts: 17mph
Location:  40.04°N, 97.02°W
Report Text: KBIE 220815Z AUTO 15009G15KT 10SM CLR 14/07 A3006 RMK AO2 T01380071
Loading
Personal Weather Stations






























Interactive Weather Map
Tropical Storm Tracking
New forecast layout! Learn more

10-Day Weather Forecast

Advertisements
Track Severe Weather on mobile